createdAt,value
2018-04-11T00:03:31.444Z,28.50
2018-04-11T00:07:34.112Z,30.50
2018-04-11T00:11:36.792Z,28.27
2018-04-11T00:15:40.297Z,25.50
2018-04-11T00:19:43.748Z,30.67
2018-04-11T00:23:46.533Z,23.83
2018-04-11T00:27:49.191Z,23.47
2018-04-11T00:31:51.853Z,25.63
2018-04-11T00:35:54.639Z,25.17
2018-04-11T00:39:57.302Z,25.63
2018-04-11T00:43:59.965Z,24.10
2018-04-11T00:48:02.625Z,28.80
2018-04-11T00:52:05.289Z,31.47
2018-04-11T00:56:07.966Z,33.87
2018-04-11T01:00:10.635Z,29.77
2018-04-11T01:04:13.292Z,24.47
2018-04-11T01:08:16.768Z,28.17
2018-04-11T01:12:19.435Z,24.23
2018-04-11T01:16:22.365Z,27.13
2018-04-11T01:20:25.796Z,29.03
2018-04-11T01:24:29.221Z,27.93
2018-04-11T01:28:31.901Z,25.77
2018-04-11T01:32:34.597Z,31.07
2018-04-11T01:36:37.331Z,32.30
2018-04-11T01:40:40.798Z,24.20
2018-04-11T01:44:43.537Z,30.80
2018-04-11T01:48:46.195Z,28.80
2018-04-11T01:52:48.870Z,22.10
2018-04-11T01:56:51.553Z,25.30
2018-04-11T02:00:54.200Z,24.23
2018-04-11T02:04:56.874Z,31.63
2018-04-11T02:08:59.550Z,28.30
2018-04-11T02:13:02.251Z,24.30
2018-04-11T02:17:04.925Z,30.10
2018-04-11T02:21:07.583Z,30.50
2018-04-11T02:25:10.245Z,26.77
2018-04-11T02:29:13.680Z,29.27
2018-04-11T02:33:16.409Z,28.87
2018-04-11T02:37:19.064Z,23.47
2018-04-11T02:41:21.723Z,31.50
2018-04-11T02:45:24.394Z,27.03
2018-04-11T02:49:27.081Z,28.30
2018-04-11T02:53:29.755Z,29.50
2018-04-11T02:57:32.440Z,31.10
2018-04-11T03:01:35.121Z,32.07
2018-04-11T03:05:37.789Z,30.23
2018-04-11T03:09:40.516Z,27.60
2018-04-11T03:13:43.182Z,29.33
2018-04-11T03:17:45.846Z,29.03
2018-04-11T03:21:48.620Z,27.23
2018-04-11T03:25:52.040Z,25.90
2018-04-11T03:29:54.730Z,23.47
2018-04-11T03:33:57.400Z,29.30
2018-04-11T03:38:00.809Z,29.33
2018-04-11T03:42:04.297Z,27.10
2018-04-11T03:46:07.809Z,30.63
2018-04-11T03:50:10.516Z,29.03
2018-04-11T03:54:13.915Z,26.17
2018-04-11T03:58:17.380Z,27.27
2018-04-11T04:02:20.064Z,25.87
2018-04-11T04:06:22.740Z,24.90
2018-04-11T04:10:25.416Z,24.80
2018-04-11T04:14:39.893Z,30.53
2018-04-11T04:23:20.358Z,20.90
2018-04-11T04:27:23.787Z,28.00
2018-04-11T04:31:26.464Z,23.30
2018-04-11T04:35:29.867Z,23.40
2018-04-11T04:39:32.590Z,23.77
2018-04-11T04:43:35.286Z,22.80
2018-04-11T04:47:37.957Z,24.10
2018-04-11T04:51:40.658Z,30.60
2018-04-11T04:55:43.344Z,25.23
2018-04-11T04:59:46.058Z,27.63
2018-04-11T05:03:48.784Z,26.37
2018-04-11T05:07:52.216Z,24.47
2018-04-11T05:11:54.941Z,23.63
2018-04-11T05:15:57.602Z,25.40
2018-04-11T05:20:00.358Z,25.60
2018-04-11T05:24:03.785Z,23.93
2018-04-11T05:28:06.440Z,27.17
2018-04-11T05:32:09.108Z,20.13
2018-04-11T05:36:11.784Z,24.87
2018-04-11T05:40:14.453Z,25.23
2018-04-11T05:44:17.127Z,24.73
2018-04-11T05:48:20.564Z,25.53
2018-04-11T05:52:23.232Z,23.83
2018-04-11T05:56:25.897Z,26.73
2018-04-11T06:00:29.318Z,23.13
2018-04-11T06:04:31.977Z,23.83
2018-04-11T06:08:34.635Z,23.37
2018-04-11T06:12:37.301Z,24.70
2018-04-11T06:16:39.977Z,26.50
2018-04-11T06:20:42.646Z,23.77
2018-04-11T06:24:46.080Z,25.80
2018-04-11T06:28:48.740Z,23.13
2018-04-11T06:32:52.381Z,24.97
2018-04-11T06:36:55.053Z,23.77
2018-04-11T06:40:58.501Z,26.47
2018-04-11T06:45:01.231Z,30.70
2018-04-11T06:49:03.852Z,24.27
2018-04-11T06:53:06.540Z,27.93
2018-04-11T06:57:09.244Z,28.33
2018-04-11T07:01:11.897Z,27.57
2018-04-11T07:05:14.585Z,34.03
2018-04-11T07:09:17.963Z,33.13
2018-04-11T07:13:20.610Z,30.50
2018-04-11T07:17:23.260Z,32.53
2018-04-11T07:21:25.916Z,28.90
2018-04-11T07:25:28.570Z,30.87
2018-04-11T07:29:31.174Z,27.60
2018-04-11T07:33:33.828Z,30.27
2018-04-11T07:37:37.352Z,33.03
2018-04-11T07:41:40.003Z,36.87
2018-04-11T07:45:42.613Z,28.80
2018-04-11T07:49:45.319Z,32.57
2018-04-11T07:53:47.971Z,36.07
2018-04-11T07:57:50.635Z,37.77
2018-04-11T08:01:53.248Z,32.77
2018-04-11T08:05:55.925Z,34.87
2018-04-11T08:09:58.590Z,29.20
2018-04-11T08:14:01.355Z,27.03
2018-04-11T08:18:04.001Z,29.37
2018-04-11T08:22:06.665Z,30.57
2018-04-11T08:26:09.394Z,32.33
2018-04-11T08:30:12.816Z,29.00
2018-04-11T08:34:16.233Z,24.53
2018-04-11T08:38:18.852Z,24.67
2018-04-11T08:42:22.024Z,27.40
2018-04-11T08:46:31.538Z,27.97
2018-04-11T08:50:34.656Z,27.13
2018-04-11T08:54:38.082Z,30.03
2018-04-11T08:58:40.695Z,28.03
2018-04-11T09:02:43.343Z,27.90
2018-04-11T09:06:45.997Z,29.17
2018-04-11T09:10:48.656Z,30.70
2018-04-11T09:14:51.323Z,30.87
2018-04-11T09:18:53.981Z,30.50
2018-04-11T09:22:57.403Z,30.97
2018-04-11T09:27:00.816Z,41.27
2018-04-11T09:31:03.480Z,57.97
2018-04-11T09:35:06.089Z,41.10
2018-04-11T09:39:08.744Z,39.37
2018-04-11T09:43:11.406Z,104.28
2018-04-11T09:47:14.057Z,32.53
2018-04-11T09:51:16.699Z,35.73
2018-04-11T09:55:19.312Z,47.47
2018-04-11T09:59:22.732Z,64.90
2018-04-11T10:03:26.157Z,37.17
2018-04-11T10:07:28.901Z,72.13
2018-04-11T10:11:31.561Z,34.40
2018-04-11T10:15:34.168Z,36.57
2018-04-11T10:19:36.817Z,33.20
2018-04-11T10:23:39.471Z,33.63
2018-04-11T10:27:42.879Z,37.07
2018-04-11T10:31:46.272Z,33.57
2018-04-11T10:35:49.769Z,35.37
2018-04-11T10:39:52.416Z,36.38
2018-04-11T10:43:55.063Z,33.87
2018-04-11T10:47:58.477Z,35.10
2018-04-11T10:52:01.867Z,37.83
2018-04-11T10:56:04.521Z,37.30
2018-04-11T11:00:07.213Z,43.97
2018-04-11T11:04:09.870Z,53.67
2018-04-11T11:08:12.612Z,34.33
2018-04-11T11:12:15.220Z,55.47
2018-04-11T11:16:18.653Z,44.47
2018-04-11T11:20:21.369Z,30.67
2018-04-11T11:24:24.013Z,33.43
2018-04-11T11:28:27.439Z,28.93
2018-04-11T11:32:30.056Z,28.73
2018-04-11T11:36:32.739Z,37.47
2018-04-11T11:40:35.402Z,35.70
2018-04-11T11:44:38.106Z,35.90
2018-04-11T11:48:40.719Z,37.83
2018-04-11T11:52:43.371Z,39.73
2018-04-11T11:56:46.023Z,33.47
2018-04-11T12:00:48.704Z,32.50
2018-04-11T12:04:51.352Z,34.10
2018-04-11T12:08:53.995Z,33.23
2018-04-11T12:12:56.644Z,30.97
2018-04-11T12:16:59.294Z,29.90
2018-04-11T12:21:01.944Z,27.27
2018-04-11T12:25:04.644Z,47.73
2018-04-11T12:29:07.291Z,37.37
2018-04-11T12:33:09.939Z,31.50
2018-04-11T12:37:12.619Z,31.70
2018-04-11T12:41:16.040Z,32.40
2018-04-11T12:45:19.412Z,31.97
2018-04-11T12:49:22.061Z,33.97
2018-04-11T12:53:24.743Z,30.57
2018-04-11T12:57:27.452Z,27.07
2018-04-11T13:01:30.104Z,27.70
2018-04-11T13:05:32.711Z,30.90
2018-04-11T13:09:35.368Z,29.70
2018-04-11T13:13:38.783Z,31.07
2018-04-11T13:17:42.209Z,31.50
2018-04-11T13:21:44.916Z,29.10
2018-04-11T13:25:48.296Z,31.10
2018-04-11T13:29:50.944Z,32.00
2018-04-11T13:33:53.624Z,28.80
2018-04-11T13:37:56.625Z,31.70
2018-04-11T13:41:59.360Z,33.80
2018-04-11T13:46:02.048Z,34.50
2018-04-11T13:50:04.694Z,33.57
2018-04-11T13:54:07.345Z,31.37
2018-04-11T13:58:09.992Z,38.63
2018-04-11T14:02:12.592Z,33.93
2018-04-11T14:06:16.193Z,33.30
2018-04-11T14:10:19.621Z,40.40
2018-04-11T14:14:22.297Z,39.97
2018-04-11T14:18:24.963Z,39.20
2018-04-11T14:22:27.578Z,41.27
2018-04-11T14:26:30.229Z,41.87
2018-04-11T14:30:32.900Z,39.90
2018-04-11T14:34:36.358Z,36.67
2018-04-11T14:38:39.028Z,38.30
2018-04-11T14:42:42.407Z,40.83
2018-04-11T14:46:45.069Z,41.20
2018-04-11T14:50:47.793Z,41.43
2018-04-11T14:54:50.508Z,33.77
2018-04-11T14:58:53.948Z,34.33
2018-04-11T15:02:56.557Z,43.37
2018-04-11T15:06:59.208Z,37.13
2018-04-11T15:11:01.865Z,40.73
2018-04-11T15:15:04.527Z,39.27
2018-04-11T15:19:07.191Z,43.77
2018-04-11T15:23:09.858Z,48.37
2018-04-11T15:27:13.339Z,41.97
2018-04-11T15:31:15.991Z,39.97
2018-04-11T15:35:18.652Z,40.13
2018-04-11T15:39:21.260Z,41.57
2018-04-11T15:43:23.954Z,36.83
2018-04-11T15:47:26.579Z,44.77
2018-04-11T15:51:29.273Z,35.07
2018-04-11T15:55:31.931Z,35.43
2018-04-11T15:59:35.304Z,36.30
2018-04-11T16:03:37.964Z,38.17
2018-04-11T16:07:41.385Z,38.23
2018-04-11T16:11:44.803Z,35.90
2018-04-11T16:15:47.457Z,32.37
2018-04-11T16:19:50.060Z,33.03
2018-04-11T16:23:53.476Z,31.20
2018-04-11T16:27:56.128Z,32.43
2018-04-11T16:31:58.775Z,34.37
2018-04-11T16:36:01.376Z,30.90
2018-04-11T16:40:04.787Z,32.10
2018-04-11T16:44:07.438Z,36.70
2018-04-11T16:48:10.092Z,32.57
2018-04-11T16:52:12.784Z,31.33
2018-04-11T16:56:15.423Z,31.93
2018-04-11T17:00:18.076Z,31.93
2018-04-11T17:04:21.512Z,30.17
2018-04-11T17:08:24.162Z,31.53
2018-04-11T17:12:26.812Z,24.83
2018-04-11T17:16:29.416Z,25.67
2018-04-11T17:20:43.968Z,24.03
2018-04-11T17:24:58.332Z,21.20
2018-04-11T17:29:12.738Z,17.87
2018-04-11T17:33:16.151Z,17.73
2018-04-11T17:37:19.533Z,19.47
2018-04-11T17:41:22.185Z,18.30
2018-04-11T17:45:24.843Z,22.93
2018-04-11T17:49:28.265Z,29.53
2018-04-11T17:53:30.875Z,29.30
2018-04-11T17:57:33.524Z,24.10
2018-04-11T18:01:36.935Z,31.70
2018-04-11T18:05:39.593Z,28.73
2018-04-11T18:09:42.243Z,31.13
2018-04-11T18:13:44.843Z,28.83
2018-04-11T18:17:47.549Z,29.07
2018-04-11T18:21:50.200Z,30.17
2018-04-11T18:25:52.855Z,31.73
2018-04-11T18:29:56.332Z,29.93
2018-04-11T18:33:58.944Z,30.20
2018-04-11T18:38:02.372Z,27.73
2018-04-11T18:42:05.029Z,29.70
2018-04-11T18:46:07.678Z,37.77
2018-04-11T18:50:10.293Z,30.80
2018-04-11T18:54:12.947Z,37.57
2018-04-11T18:58:15.693Z,35.00
2018-04-11T19:02:19.174Z,30.23
2018-04-11T19:06:21.888Z,31.63
2018-04-11T19:10:25.270Z,26.97
2018-04-11T19:14:27.920Z,27.40
2018-04-11T19:18:30.597Z,32.43
2018-04-11T19:22:33.249Z,25.87
2018-04-11T19:26:36.746Z,27.97
2018-04-11T19:30:39.403Z,24.37
2018-04-11T19:34:42.091Z,29.50
2018-04-11T19:38:44.760Z,31.30
2018-04-11T19:42:47.425Z,30.33
2018-04-11T19:46:50.860Z,28.87
2018-04-11T19:50:53.480Z,27.30
2018-04-11T19:54:56.358Z,24.57
2018-04-11T19:58:59.022Z,28.00
2018-04-11T20:03:01.681Z,31.00
2018-04-11T20:07:04.314Z,28.00
2018-04-11T20:11:07.022Z,27.73
2018-04-11T20:15:09.677Z,26.20
2018-04-11T20:19:12.384Z,27.87
2018-04-11T20:23:15.818Z,27.90
2018-04-11T20:27:18.432Z,28.20
2018-04-11T20:31:21.867Z,27.73
2018-04-11T20:35:24.527Z,26.57
2018-04-11T20:39:27.185Z,33.80
2018-04-11T20:43:29.863Z,28.27
2018-04-11T20:47:32.500Z,28.13
2018-04-11T20:51:35.968Z,30.70
2018-04-11T20:55:38.727Z,27.70
2018-04-11T20:59:41.392Z,30.13
2018-04-11T21:03:44.834Z,30.70
2018-04-11T21:07:47.480Z,28.30
2018-04-11T21:11:50.917Z,34.67
2018-04-11T21:15:53.579Z,28.10
2018-04-11T21:19:56.236Z,32.47
2018-04-11T21:23:58.855Z,32.00
2018-04-11T21:28:02.297Z,30.00
2018-04-11T21:32:04.956Z,29.30
2018-04-11T21:36:08.392Z,30.87
2018-04-11T21:40:11.048Z,32.80
2018-04-11T21:44:13.669Z,35.03
2018-04-11T21:48:16.330Z,33.93
2018-04-11T21:52:19.756Z,35.97
2018-04-11T21:56:22.411Z,36.10
2018-04-11T22:00:25.061Z,39.37
2018-04-11T22:04:27.739Z,37.90
2018-04-11T22:08:30.397Z,41.07
2018-04-11T22:12:33.819Z,39.53
2018-04-11T22:16:36.499Z,45.90
2018-04-11T22:20:39.166Z,50.60
2018-04-11T22:24:41.808Z,48.50
2018-04-11T22:28:44.496Z,49.90
2018-04-11T22:32:47.168Z,46.90
2018-04-11T22:36:49.887Z,46.70
2018-04-11T22:40:53.305Z,49.07
2018-04-11T22:44:55.958Z,49.50
2018-04-11T22:48:58.620Z,52.73
2018-04-11T22:53:02.040Z,47.60
2018-04-11T22:57:04.695Z,51.83
2018-04-11T23:01:07.318Z,50.97
2018-04-11T23:05:09.982Z,55.63
2018-04-11T23:09:13.395Z,56.33
2018-04-11T23:13:16.055Z,56.70
2018-04-11T23:17:18.720Z,60.10
2018-04-11T23:21:21.332Z,56.70
2018-04-11T23:25:23.980Z,54.60
2018-04-11T23:29:26.681Z,58.07
2018-04-11T23:33:29.390Z,55.00
2018-04-11T23:37:32.060Z,54.63
2018-04-11T23:41:34.673Z,57.53
2018-04-11T23:45:37.331Z,57.97
2018-04-11T23:49:40.025Z,56.23
2018-04-11T23:53:42.736Z,54.70
2018-04-11T23:57:45.586Z,54.87
